Time;durP1;ratioP1;P1;durP2;ratioP2;P2;SDS_P1;SDS_P2;PMS_P1;PMS_P2;Temp;Humidity;BMP_temperature;BMP_pressure;BME280_temperature;BME280_humidity;BME280_pressure;Samples;Min_cycle;Max_cycle;Signal;HPM_P1;HPM_P2
2022/06/02 00:01:24;;;;;;;11.77;9.80;;;9.00;99.90;;;;;;4853855;29;20174;-67
2022/06/02 00:04:11;;;;;;;12.25;9.50;;;9.00;99.90;;;;;;4857329;29;20075;-67
2022/06/02 00:06:57;;;;;;;10.55;9.40;;;9.00;99.90;;;;;;4911907;29;20051;-67
2022/06/02 00:09:37;;;;;;;10.40;9.23;;;8.90;99.90;;;;;;4928189;29;20134;-67
2022/06/02 00:12:29;;;;;;;12.00;10.45;;;8.80;99.90;;;;;;4944075;29;20048;-67
2022/06/02 00:15:26;;;;;;;15.10;10.07;;;8.90;99.90;;;;;;4928437;29;20111;-67
2022/06/02 00:18:01;;;;;;;12.60;10.43;;;8.80;99.90;;;;;;4928382;29;20068;-67
2022/06/02 00:20:34;;;;;;;13.90;11.50;;;8.80;99.90;;;;;;4928224;29;20048;-67
2022/06/02 00:23:08;;;;;;;10.75;9.55;;;8.70;99.90;;;;;;4969791;28;20105;-67
2022/06/02 00:25:43;;;;;;;12.13;10.10;;;8.70;99.90;;;;;;5041680;28;20053;-67
2022/06/02 00:28:23;;;;;;;11.13;9.43;;;8.60;99.90;;;;;;5048405;28;20128;-67
2022/06/02 00:30:57;;;;;;;9.90;8.65;;;8.80;99.90;;;;;;5034217;28;20053;-67
2022/06/02 00:33:41;;;;;;;10.07;8.45;;;8.60;99.90;;;;;;5067492;28;20041;-67
2022/06/02 00:36:46;;;;;;;12.55;9.30;;;8.50;99.90;;;;;;5063126;28;20048;-67
2022/06/02 00:39:17;;;;;;;12.43;9.90;;;8.60;99.90;;;;;;5056371;28;20104;-67
2022/06/02 00:41:49;;;;;;;11.60;9.43;;;8.70;99.90;;;;;;5050453;28;20041;-67
2022/06/02 00:44:21;;;;;;;12.18;9.88;;;8.60;99.90;;;;;;5049470;28;20263;-67
2022/06/02 00:46:53;;;;;;;10.80;8.82;;;8.60;99.90;;;;;;5065679;28;20114;-67
2022/06/02 00:49:26;;;;;;;11.45;9.50;;;8.70;99.90;;;;;;5082770;28;20071;-67
2022/06/02 00:52:11;;;;;;;12.75;10.00;;;8.70;99.90;;;;;;5053581;28;20100;-67
2022/06/02 00:57:42;;;;;;;11.15;8.95;;;8.60;99.90;;;;;;5050968;28;20055;-67
2022/06/02 01:00:28;;;;;;;11.50;10.20;;;8.50;99.90;;;;;;5052021;28;20045;-67
2022/06/02 01:03:13;;;;;;;12.48;10.52;;;8.50;99.90;;;;;;5060985;28;20087;-67
2022/06/02 01:06:03;;;;;;;14.57;10.90;;;8.40;99.90;;;;;;5043614;28;20512;-67
2022/06/02 01:08:41;;;;;;;;;;;8.50;99.90;;;;;;5049393;28;20079;-67
2022/06/02 01:11:24;;;;;;;13.05;11.07;;;8.30;99.90;;;;;;5064394;28;19924;-67
2022/06/02 01:13:49;;;;;;;14.10;11.13;;;8.40;99.90;;;;;;5048770;28;20045;-67
2022/06/02 01:16:25;;;;;;;13.60;11.32;;;8.40;99.90;;;;;;5047110;28;20044;-67
2022/06/02 01:19:28;;;;;;;13.90;11.10;;;8.30;99.90;;;;;;5050531;28;20048;-67
2022/06/02 01:22:00;;;;;;;12.52;10.68;;;8.30;99.90;;;;;;5067218;28;20128;-67
2022/06/02 01:25:10;;;;;;;14.57;11.88;;;8.30;99.90;;;;;;5057986;28;20069;-67
2022/06/02 01:28:18;;;;;;;14.57;11.15;;;8.30;99.90;;;;;;5029392;28;20421;-67
2022/06/02 01:30:55;;;;;;;13.68;11.88;;;8.30;99.90;;;;;;5029614;28;20056;-67
2022/06/02 01:33:39;;;;;;;16.85;11.20;;;8.20;99.90;;;;;;5039977;28;20120;-67
2022/06/02 01:36:25;;;;;;;15.23;11.02;;;8.10;99.90;;;;;;5042768;28;20038;-67
2022/06/02 01:39:04;;;;;;;14.55;11.88;;;8.10;99.90;;;;;;5027645;28;20052;-67
2022/06/02 01:41:59;;;;;;;15.60;12.07;;;8.10;99.90;;;;;;5012426;28;20050;-67
2022/06/02 01:44:44;;;;;;;16.25;11.68;;;8.20;99.90;;;;;;5042492;28;20061;-67
2022/06/02 01:47:30;;;;;;;14.55;11.25;;;8.00;99.90;;;;;;5026158;28;20052;-67
2022/06/02 01:50:02;;;;;;;13.95;11.50;;;8.00;99.90;;;;;;5028391;28;20057;-67
2022/06/02 01:52:55;;;;;;;16.30;12.80;;;8.10;99.90;;;;;;5026307;28;20069;-67
2022/06/02 01:55:42;;;;;;;16.08;11.55;;;8.00;99.90;;;;;;5040726;28;20052;-67
2022/06/02 01:58:36;;;;;;;15.25;12.35;;;8.00;99.90;;;;;;5031112;28;20052;-67
2022/06/02 02:01:07;;;;;;;15.32;12.75;;;7.90;99.90;;;;;;5043942;28;20049;-67
2022/06/02 02:04:07;;;;;;;17.70;13.68;;;8.00;99.90;;;;;;5045100;28;20041;-66
2022/06/02 02:06:48;;;;;;;16.63;12.55;;;8.10;99.90;;;;;;4927714;29;20063;-67
2022/06/02 02:09:28;;;;;;;16.40;12.10;;;7.90;99.90;;;;;;4933010;29;20080;-67
2022/06/02 02:11:56;;;;;;;15.93;12.25;;;7.90;99.90;;;;;;4929850;29;20095;-67
2022/06/02 02:14:31;;;;;;;13.38;10.98;;;7.80;99.90;;;;;;4932387;29;20039;-67
2022/06/02 02:17:02;;;;;;;13.13;11.45;;;7.80;99.90;;;;;;4930099;29;20059;-67
2022/06/02 02:19:49;;;;;;;14.38;11.48;;;7.80;99.90;;;;;;4932352;29;20052;-67
2022/06/02 02:22:55;;;;;;;16.00;12.27;;;7.70;99.90;;;;;;4947550;29;20063;-67
2022/06/02 02:25:29;;;;;;;17.58;13.00;;;7.70;99.90;;;;;;4927246;29;20059;-67
2022/06/02 02:28:36;;;;;;;15.23;11.75;;;7.80;99.90;;;;;;4934764;29;20052;-67
2022/06/02 02:31:11;;;;;;;14.02;12.15;;;7.80;99.90;;;;;;4924089;29;20060;-67
2022/06/02 02:34:18;;;;;;;12.80;11.35;;;7.70;99.90;;;;;;4937957;29;20064;-67
2022/06/02 02:36:51;;;;;;;14.93;12.02;;;7.80;99.90;;;;;;4930037;29;20060;-67
2022/06/02 02:39:31;;;;;;;16.42;12.77;;;7.60;99.90;;;;;;4945441;29;20040;-67
2022/06/02 02:42:00;;;;;;;17.27;13.50;;;7.60;99.90;;;;;;4948092;29;20107;-67
2022/06/02 02:44:36;;;;;;;17.73;13.00;;;7.50;99.90;;;;;;5024087;28;20057;-67
2022/06/02 02:47:16;;;;;;;16.00;13.57;;;7.50;99.90;;;;;;5027891;28;20056;-67
2022/06/02 02:49:56;;;;;;;18.20;13.73;;;7.60;99.90;;;;;;5022741;28;20069;-67
2022/06/02 02:52:43;;;;;;;17.13;12.73;;;7.50;99.90;;;;;;5010648;28;20114;-66
2022/06/02 02:55:21;;;;;;;16.67;12.57;;;7.50;99.90;;;;;;5045581;28;20052;-67
2022/06/02 02:58:10;;;;;;;14.95;12.95;;;7.60;99.90;;;;;;5030855;28;20053;-67
2022/06/02 03:00:59;;;;;;;15.15;12.25;;;7.60;99.90;;;;;;5045066;28;20107;-67
2022/06/02 03:03:43;;;;;;;14.30;12.00;;;7.40;99.90;;;;;;5025329;28;20123;-67
2022/06/02 03:06:28;;;;;;;14.57;12.38;;;7.40;99.90;;;;;;5029978;28;20299;-67
2022/06/02 03:09:12;;;;;;;17.50;13.20;;;7.40;99.90;;;;;;5028041;28;20052;-67
2022/06/02 03:11:53;;;;;;;16.75;12.88;;;7.30;99.90;;;;;;5025210;28;20037;-67
2022/06/02 03:14:40;;;;;;;18.67;13.80;;;7.40;99.90;;;;;;5044471;28;20045;-67
2022/06/02 03:17:28;;;;;;;18.48;13.23;;;7.40;99.90;;;;;;5044853;28;20053;-67
2022/06/02 03:20:12;;;;;;;16.77;13.02;;;7.30;99.90;;;;;;5026948;28;20079;-67
2022/06/02 03:22:48;;;;;;;16.83;13.45;;;7.30;99.90;;;;;;5042608;28;20045;-67
2022/06/02 03:25:23;;;;;;;19.77;14.13;;;7.30;99.90;;;;;;5040146;28;20056;-67
2022/06/02 03:28:04;;;;;;;18.95;13.93;;;7.40;99.90;;;;;;5046935;28;20079;-67
2022/06/02 03:30:41;;;;;;;17.50;13.57;;;7.40;99.90;;;;;;5046862;28;20075;-67
2022/06/02 03:33:21;;;;;;;17.90;14.07;;;7.40;99.90;;;;;;5047505;28;20057;-67
2022/06/02 03:35:56;;;;;;;16.85;14.63;;;7.40;99.90;;;;;;5050429;28;20044;-66
2022/06/02 03:38:42;;;;;;;18.27;14.02;;;7.40;99.90;;;;;;5046372;28;20113;-67
2022/06/02 03:41:50;;;;;;;21.00;14.88;;;7.40;99.90;;;;;;5057349;28;20052;-67
2022/06/02 03:44:49;;;;;;;20.33;13.80;;;7.40;99.90;;;;;;5046308;28;20531;-67
2022/06/02 03:47:35;;;;;;;18.37;13.27;;;7.50;99.90;;;;;;5041386;28;20053;-67
2022/06/02 03:50:10;;;;;;;20.58;15.35;;;7.50;99.90;;;;;;5046827;28;20308;-67
2022/06/02 03:52:39;;;;;;;17.95;14.38;;;7.40;99.90;;;;;;5061877;28;20060;-67
2022/06/02 03:55:07;;;;;;;18.40;14.85;;;7.40;99.90;;;;;;5063980;28;20068;-67
2022/06/02 03:58:08;;;;;;;17.48;13.88;;;7.40;99.90;;;;;;5063818;28;20127;-67
2022/06/02 04:00:56;;;;;;;20.65;15.27;;;7.50;99.90;;;;;;5047456;28;20501;-67
2022/06/02 04:03:34;;;;;;;19.27;14.73;;;7.50;99.90;;;;;;5051253;28;20144;-67
2022/06/02 04:06:08;;;;;;;20.60;15.23;;;7.60;99.90;;;;;;5065892;28;20104;-67
2022/06/02 04:09:06;;;;;;;22.10;15.57;;;7.60;99.90;;;;;;5053978;28;20130;-67
2022/06/02 04:14:43;;;;;;;19.95;14.95;;;7.60;99.90;;;;;;5063318;28;20053;-67
2022/06/02 04:17:14;;;;;;;20.77;16.65;;;7.80;99.90;;;;;;5052073;28;20582;-67
2022/06/02 04:23:02;;;;;;;19.10;14.30;;;7.80;99.90;;;;;;5049940;28;20561;-66
2022/06/02 04:26:06;;;;;;;17.33;13.83;;;7.80;99.90;;;;;;5049782;28;20063;-67
2022/06/02 04:28:38;;;;;;;20.08;15.32;;;7.90;99.90;;;;;;5050861;28;20049;-67
2022/06/02 04:31:32;;;;;;;22.10;16.20;;;7.80;99.90;;;;;;5050642;28;20041;-67
2022/06/02 04:33:57;;;;;;;24.65;20.83;;;7.80;99.90;;;;;;5043519;28;20113;-67
2022/06/02 04:36:39;;;;;;;23.30;15.68;;;8.00;99.90;;;;;;5068097;28;20041;-67
2022/06/02 04:39:12;;;;;;;21.02;16.10;;;8.00;99.90;;;;;;5048312;28;20495;-67
2022/06/02 04:41:53;;;;;;;21.48;16.10;;;8.10;99.90;;;;;;5065875;28;20049;-68
2022/06/02 04:44:49;;;;;;;24.13;16.45;;;8.20;99.90;;;;;;5045281;28;20064;-66
2022/06/02 04:47:25;;;;;;;22.70;16.70;;;8.20;99.90;;;;;;5031424;28;20078;-66
2022/06/02 04:50:19;;;;;;;22.05;15.73;;;8.30;99.90;;;;;;5047372;28;20470;-67
2022/06/02 04:53:14;;;;;;;22.83;16.70;;;8.30;99.90;;;;;;5047209;28;20045;-66
2022/06/02 04:56:21;;;;;;;22.30;15.90;;;8.50;99.90;;;;;;5043208;28;20515;-67
2022/06/02 04:59:10;;;;;;;20.40;16.48;;;8.50;99.90;;;;;;5065205;28;20416;-67
2022/06/02 05:02:14;;;;;;;21.77;15.90;;;8.70;99.90;;;;;;5046701;28;20056;-66
2022/06/02 05:04:53;;;;;;;22.40;16.10;;;8.70;99.90;;;;;;5042616;28;20041;-67
2022/06/02 05:07:37;;;;;;;20.77;15.50;;;8.80;99.90;;;;;;5046875;28;20056;-66
2022/06/02 05:10:17;;;;;;;19.52;15.25;;;8.80;99.90;;;;;;5045752;28;20052;-66
2022/06/02 05:13:04;;;;;;;20.25;14.82;;;8.90;99.90;;;;;;5027321;28;20047;-67
2022/06/02 05:15:56;;;;;;;18.30;14.75;;;9.00;99.90;;;;;;5064739;28;20044;-67
2022/06/02 05:18:53;;;;;;;20.25;15.13;;;9.00;99.90;;;;;;5062988;28;20045;-67
2022/06/02 05:21:37;;;;;;;20.67;14.38;;;9.20;99.90;;;;;;5029060;28;20120;-67
2022/06/02 05:24:09;;;;;;;19.45;15.07;;;9.30;99.90;;;;;;5060258;28;20501;-67
2022/06/02 05:26:53;;;;;;;15.57;13.77;;;9.30;99.90;;;;;;5047428;28;20057;-67
2022/06/02 05:29:28;;;;;;;16.70;13.73;;;9.30;99.90;;;;;;5046603;28;20045;-68
2022/06/02 05:32:00;;;;;;;16.27;13.68;;;9.40;99.90;;;;;;5048978;28;20037;-67
2022/06/02 05:35:04;;;;;;;19.15;14.45;;;9.70;99.90;;;;;;5044044;28;20098;-67
2022/06/02 05:37:48;;;;;;;15.52;12.10;;;9.50;99.90;;;;;;5045522;28;20078;-67
2022/06/02 05:40:38;;;;;;;15.38;12.57;;;9.50;99.90;;;;;;5046597;28;20048;-68
2022/06/02 05:43:19;;;;;;;18.25;14.05;;;9.60;99.90;;;;;;5046095;28;20079;-68
2022/06/02 05:46:05;;;;;;;17.70;12.57;;;9.70;99.90;;;;;;5044778;28;20041;-68
2022/06/02 05:48:54;;;;;;;16.10;13.10;;;9.90;99.90;;;;;;5063560;28;20123;-68
2022/06/02 05:51:35;;;;;;;15.88;12.50;;;9.90;99.90;;;;;;5048374;28;20040;-68
2022/06/02 05:54:31;;;;;;;15.82;12.60;;;10.00;99.90;;;;;;5047118;28;20045;-68
2022/06/02 05:57:16;;;;;;;15.68;11.70;;;10.00;99.90;;;;;;5046786;28;20080;-68
2022/06/02 05:59:57;;;;;;;16.05;13.95;;;10.10;99.90;;;;;;5020015;28;20616;-67
2022/06/02 06:02:37;;;;;;;15.98;11.73;;;10.30;99.90;;;;;;5054672;28;20052;-67
2022/06/02 06:05:09;;;;;;;14.30;12.45;;;10.40;99.90;;;;;;5039350;28;20063;-67
2022/06/02 06:07:53;;;;;;;14.52;12.13;;;10.40;99.90;;;;;;5054613;28;20053;-67
2022/06/02 06:10:46;;;;;;;11.23;10.02;;;10.30;99.90;;;;;;5028461;28;20466;-67
2022/06/02 06:13:47;;;;;;;11.90;9.88;;;10.50;99.90;;;;;;5052067;28;20060;-67
2022/06/02 06:16:36;;;;;;;11.27;8.70;;;10.60;99.90;;;;;;4919452;29;20047;-66
2022/06/02 06:19:29;;;;;;;10.27;8.35;;;10.60;99.90;;;;;;4925307;29;20050;-68
2022/06/02 06:22:19;;;;;;;12.20;8.75;;;10.70;99.90;;;;;;4915631;29;20047;-67
2022/06/02 06:24:52;;;;;;;;;;;10.80;99.90;;;;;;4942010;29;20295;-67
2022/06/02 06:27:30;;;;;;;8.35;7.43;;;10.90;99.90;;;;;;4916754;29;19923;-67
2022/06/02 06:30:14;;;;;;;10.65;7.72;;;11.10;99.90;;;;;;4926640;29;20059;-67
2022/06/02 06:32:52;;;;;;;7.45;6.28;;;11.10;99.90;;;;;;4897024;29;20043;-67
2022/06/02 06:35:55;;;;;;;7.70;6.85;;;11.20;99.90;;;;;;4911004;29;22662;-67
2022/06/02 06:38:38;;;;;;;8.38;7.53;;;11.30;99.90;;;;;;4920468;29;20056;-67
2022/06/02 06:41:10;;;;;;;8.60;6.18;;;11.40;99.90;;;;;;4913847;29;20056;-67
2022/06/02 06:44:05;;;;;;;8.82;5.82;;;11.50;99.90;;;;;;4925909;29;20044;-67
2022/06/02 06:46:40;;;;;;;6.30;5.10;;;11.70;99.90;;;;;;4910418;29;20083;-67
2022/06/02 06:49:14;;;;;;;10.05;6.07;;;11.60;99.90;;;;;;4939955;29;20626;-67
2022/06/02 06:52:10;;;;;;;5.90;4.70;;;11.80;99.90;;;;;;4957859;28;20107;-67
2022/06/02 06:55:00;;;;;;;5.25;4.38;;;11.80;99.90;;;;;;5001720;28;20059;-67
2022/06/02 06:57:28;;;;;;;9.02;5.15;;;12.00;99.90;;;;;;5045502;28;20069;-66
2022/06/02 07:00:08;;;;;;;5.00;4.53;;;12.00;99.90;;;;;;5040341;28;20091;-66
2022/06/02 07:02:49;;;;;;;6.90;4.95;;;12.00;99.90;;;;;;5031337;28;20112;-67
2022/06/02 07:05:20;;;;;;;5.78;4.88;;;12.10;99.90;;;;;;5046481;28;20033;-67
2022/06/02 07:07:55;;;;;;;7.20;5.20;;;12.00;99.90;;;;;;5050855;28;20040;-67
2022/06/02 07:10:37;;;;;;;5.45;4.63;;;12.10;99.90;;;;;;5030397;28;20155;-67
2022/06/02 07:13:18;;;;;;;4.82;3.78;;;12.50;99.90;;;;;;5051310;28;20109;-67
2022/06/02 07:16:14;;;;;;;5.32;3.15;;;12.20;99.90;;;;;;5046887;28;20048;-67
2022/06/02 07:18:56;;;;;;;4.03;3.60;;;12.50;99.90;;;;;;5029642;28;20095;-68
2022/06/02 07:21:48;;;;;;;4.25;3.33;;;12.50;99.90;;;;;;5028656;28;20061;-67
2022/06/02 07:24:42;;;;;;;4.78;3.30;;;12.60;99.90;;;;;;5055296;28;20045;-68
2022/06/02 07:27:23;;;;;;;5.90;3.20;;;12.70;99.90;;;;;;5048207;28;20060;-67
2022/06/02 07:30:14;;;;;;;3.45;3.15;;;12.60;99.90;;;;;;5040487;28;20057;-67
2022/06/02 07:33:03;;;;;;;6.20;4.43;;;12.70;99.90;;;;;;5008533;28;20052;-67
2022/06/02 07:35:41;;;;;;;6.03;3.55;;;12.80;99.90;;;;;;5011665;28;20073;-67
2022/06/02 07:38:42;;;;;;;4.32;3.15;;;12.90;99.90;;;;;;5068336;28;20041;-67
2022/06/02 07:41:21;;;;;;;3.58;3.00;;;13.00;99.90;;;;;;5051141;28;20082;-67
2022/06/02 07:44:06;;;;;;;5.93;3.30;;;13.00;99.90;;;;;;5046390;28;20080;-67
2022/06/02 07:46:37;;;;;;;4.80;3.80;;;12.90;99.90;;;;;;5041214;28;20060;-67
2022/06/02 07:49:15;;;;;;;4.63;3.55;;;13.00;99.90;;;;;;5044833;28;20113;-67
2022/06/02 07:51:47;;;;;;;4.95;3.45;;;13.00;99.90;;;;;;5028679;28;20048;-67
2022/06/02 07:54:47;;;;;;;3.88;2.75;;;13.10;99.90;;;;;;5072101;28;20048;-68
2022/06/02 07:57:14;;;;;;;3.50;3.17;;;13.10;99.90;;;;;;5026324;28;20048;-67
2022/06/02 07:59:48;;;;;;;3.97;3.05;;;13.30;99.90;;;;;;5035947;28;20072;-67
2022/06/02 08:02:49;;;;;;;4.10;3.03;;;13.30;99.90;;;;;;5044568;28;20090;-67
2022/06/02 08:05:19;;;;;;;3.80;3.10;;;13.30;99.90;;;;;;5033920;28;20118;-67
2022/06/02 08:07:52;;;;;;;4.68;2.85;;;13.30;99.90;;;;;;4995787;28;20495;-67
2022/06/02 08:10:50;;;;;;;5.30;2.90;;;13.30;99.90;;;;;;5038389;28;20053;-67
2022/06/02 08:13:41;;;;;;;4.82;3.70;;;13.50;99.90;;;;;;5028722;28;20045;-67
2022/06/02 08:16:13;;;;;;;5.38;3.25;;;13.60;99.90;;;;;;5026788;28;20049;-67
2022/06/02 08:18:54;;;;;;;5.10;3.08;;;13.50;99.90;;;;;;5037794;28;20041;-67
2022/06/02 08:21:29;;;;;;;4.47;3.15;;;13.40;99.90;;;;;;5028871;28;20080;-67
2022/06/02 08:24:19;;;;;;;5.82;3.03;;;13.60;99.90;;;;;;5038027;28;20451;-68
2022/06/02 08:27:14;;;;;;;4.07;3.38;;;13.70;99.90;;;;;;5008002;28;20068;-67
2022/06/02 08:29:42;;;;;;;3.65;3.30;;;13.90;99.90;;;;;;4982975;28;20133;-67
2022/06/02 08:32:25;;;;;;;4.13;3.10;;;14.00;99.90;;;;;;5002619;28;20064;-67
2022/06/02 08:35:09;;;;;;;3.80;3.28;;;14.00;99.90;;;;;;5024310;28;20061;-67
2022/06/02 08:37:40;;;;;;;4.63;3.22;;;14.00;99.90;;;;;;4997013;28;20050;-67
2022/06/02 08:40:30;;;;;;;3.83;3.47;;;13.90;99.90;;;;;;5034295;28;20042;-67
2022/06/02 08:43:13;;;;;;;4.35;3.00;;;13.90;99.90;;;;;;4979557;28;20045;-67
2022/06/02 08:45:49;;;;;;;3.92;3.50;;;13.90;99.90;;;;;;4989156;28;20100;-67
2022/06/02 08:48:28;;;;;;;4.90;3.70;;;14.00;99.90;;;;;;5034804;28;20045;-67
2022/06/02 08:51:02;;;;;;;5.63;3.47;;;14.20;99.90;;;;;;5025832;28;20080;-67
2022/06/02 08:54:03;;;;;;;4.32;3.13;;;14.20;99.90;;;;;;5005160;28;20037;-67
2022/06/02 08:57:09;;;;;;;4.35;2.90;;;14.10;99.90;;;;;;5013036;28;20057;-67
2022/06/02 08:59:57;;;;;;;4.78;3.10;;;14.10;99.90;;;;;;5038404;28;20045;-67
2022/06/02 09:02:49;;;;;;;4.82;2.95;;;14.00;99.90;;;;;;5014923;28;20089;-67
2022/06/02 09:05:30;;;;;;;8.18;3.30;;;14.00;99.90;;;;;;5039975;28;20052;-67
2022/06/02 09:08:04;;;;;;;3.03;2.70;;;14.00;99.90;;;;;;5001789;28;20037;-67
2022/06/02 09:10:41;;;;;;;3.83;2.85;;;14.10;99.90;;;;;;5021816;28;20056;-71
2022/06/02 09:13:32;;;;;;;3.40;2.97;;;14.20;99.90;;;;;;5033880;28;20053;-67
2022/06/02 09:16:24;;;;;;;3.95;2.80;;;14.40;99.90;;;;;;4997016;28;20049;-67
2022/06/02 09:19:14;;;;;;;4.50;3.30;;;14.60;99.90;;;;;;5037064;28;20057;-67
2022/06/02 09:22:10;;;;;;;3.38;3.08;;;14.70;99.90;;;;;;5013371;28;20460;-67
2022/06/02 09:24:41;;;;;;;2.90;2.60;;;14.80;99.90;;;;;;5022598;28;20073;-67
2022/06/02 09:27:38;;;;;;;7.75;2.55;;;14.70;99.90;;;;;;5042490;28;20784;-67
2022/06/02 09:30:08;;;;;;;3.30;2.55;;;14.60;99.90;;;;;;5025792;28;20046;-67
2022/06/02 09:32:48;;;;;;;3.83;2.72;;;14.60;99.90;;;;;;5048021;28;20059;-67
2022/06/02 09:35:41;;;;;;;4.80;3.55;;;14.60;99.90;;;;;;5045378;28;20060;-67
2022/06/02 09:38:32;;;;;;;4.47;3.13;;;14.80;99.90;;;;;;5014064;28;20073;-67
2022/06/02 09:41:18;;;;;;;3.92;3.08;;;14.90;99.90;;;;;;5031730;28;20579;-68
2022/06/02 09:44:03;;;;;;;4.68;3.03;;;14.80;99.90;;;;;;5051948;28;20059;-67
2022/06/02 09:47:03;;;;;;;4.43;3.13;;;14.90;99.90;;;;;;5037015;28;20159;-66
2022/06/02 09:49:36;;;;;;;4.60;2.67;;;14.90;99.90;;;;;;5043273;28;20120;-67
2022/06/02 09:52:07;;;;;;;3.10;2.50;;;14.90;99.90;;;;;;5030875;28;20385;-67
2022/06/02 09:54:56;;;;;;;6.30;3.15;;;15.10;99.90;;;;;;5042437;28;20049;-66
2022/06/02 09:57:55;;;;;;;4.03;2.80;;;15.30;99.90;;;;;;5064011;28;20057;-67
2022/06/02 10:00:39;;;;;;;5.03;3.28;;;15.40;99.90;;;;;;5054959;28;20045;-66
2022/06/02 10:03:08;;;;;;;3.33;2.65;;;15.50;99.90;;;;;;5048853;28;20055;-67
2022/06/02 10:06:02;;;;;;;6.85;2.75;;;15.40;99.90;;;;;;5039132;28;20052;-66
2022/06/02 10:08:58;;;;;;;4.28;2.58;;;15.40;99.90;;;;;;5015181;28;20080;-67
2022/06/02 10:11:50;;;;;;;3.63;2.67;;;15.40;99.90;;;;;;5024750;28;20076;-67
2022/06/02 10:14:35;;;;;;;3.35;2.90;;;15.50;99.90;;;;;;5047149;28;20075;-67
2022/06/02 10:17:27;;;;;;;3.78;3.47;;;15.50;99.90;;;;;;5032351;28;20077;-67
2022/06/02 10:20:18;;;;;;;5.20;3.17;;;15.50;99.90;;;;;;5040362;28;20056;-66
2022/06/02 10:23:03;;;;;;;5.55;2.85;;;15.50;99.90;;;;;;5030291;28;20832;-66
2022/06/02 10:25:34;;;;;;;4.57;2.92;;;15.50;99.90;;;;;;5023235;28;20341;-66
2022/06/02 10:28:00;;;;;;;3.67;2.97;;;15.60;99.90;;;;;;5031941;28;20455;-66
2022/06/02 10:31:08;;;;;;;3.83;2.17;;;15.70;99.90;;;;;;5060442;28;20045;-66
2022/06/02 10:34:07;;;;;;;2.95;2.38;;;15.80;99.90;;;;;;5025352;28;20157;-66
2022/06/02 10:37:09;;;;;;;4.10;2.92;;;16.00;99.90;;;;;;5049453;28;20064;-67
2022/06/02 10:39:38;;;;;;;3.72;3.05;;;15.90;99.90;;;;;;5060655;28;20045;-67
2022/06/02 10:42:31;;;;;;;3.80;2.63;;;15.80;99.90;;;;;;5029734;28;20551;-67
2022/06/02 10:45:24;;;;;;;3.30;2.80;;;15.80;99.90;;;;;;5071260;28;20041;-66
2022/06/02 10:48:04;;;;;;;2.88;2.45;;;15.80;99.90;;;;;;5029514;28;20049;-67
2022/06/02 10:50:51;;;;;;;3.13;2.60;;;15.80;99.90;;;;;;5038227;28;20048;-67
2022/06/02 10:54:13;;;;;;;3.55;2.75;;;16.00;99.90;;;;;;5013446;28;20387;-68
2022/06/02 10:57:16;;;;;;;3.47;2.40;;;16.10;99.90;;;;;;4939093;28;20054;-68
2022/06/02 11:00:13;;;;;;;3.58;2.63;;;16.10;99.90;;;;;;4947632;29;20160;-68
2022/06/02 11:03:15;;;;;;;2.40;2.17;;;16.10;99.90;;;;;;4963960;28;20050;-68
2022/06/02 11:06:11;;;;;;;2.95;2.10;;;16.10;99.90;;;;;;4958287;28;20531;-68
2022/06/02 11:09:10;;;;;;;4.82;2.70;;;16.10;99.90;;;;;;4917444;29;20055;-68
2022/06/02 11:12:13;;;;;;;3.00;2.50;;;16.30;99.90;;;;;;4951301;28;20642;-68
2022/06/02 11:15:08;;;;;;;4.03;2.63;;;16.40;99.90;;;;;;4931099;28;20055;-68
2022/06/02 11:18:13;;;;;;;2.30;2.10;;;16.30;99.90;;;;;;4959468;28;20051;-68
2022/06/02 11:20:59;;;;;;;2.58;2.13;;;16.40;99.90;;;;;;4938254;29;20051;-67
2022/06/02 11:23:52;;;;;;;2.60;2.40;;;16.30;99.90;;;;;;4948818;29;20118;-68
2022/06/02 11:26:39;;;;;;;4.15;2.63;;;16.40;99.90;;;;;;4932329;28;20468;-68
2022/06/02 11:29:46;;;;;;;2.60;2.40;;;16.60;99.90;;;;;;4947220;28;20075;-68
2022/06/02 11:32:15;;;;;;;3.13;2.17;;;16.60;99.90;;;;;;5017512;28;20148;-67
2022/06/02 11:35:02;;;;;;;2.72;2.28;;;16.70;99.90;;;;;;5041464;28;20103;-68
2022/06/02 11:37:58;;;;;;;3.35;2.20;;;16.90;99.90;;;;;;5029275;28;20189;-68
2022/06/02 11:40:54;;;;;;;2.33;2.13;;;17.00;99.90;;;;;;5038034;28;20394;-67
2022/06/02 11:43:26;;;;;;;2.20;2.00;;;17.10;99.90;;;;;;5029668;28;20790;-68
2022/06/02 11:46:13;;;;;;;3.85;2.50;;;17.40;99.90;;;;;;5039319;28;20092;-68
2022/06/02 11:49:11;;;;;;;3.63;2.08;;;17.40;99.90;;;;;;5014508;28;20053;-68
2022/06/02 11:52:15;;;;;;;2.40;2.20;;;17.60;99.90;;;;;;5034023;28;20105;-68
2022/06/02 11:55:11;;;;;;;3.17;2.60;;;17.50;99.90;;;;;;5061718;28;20045;-68
2022/06/02 11:58:03;;;;;;;3.40;2.35;;;17.50;99.90;;;;;;5029554;28;20079;-68
2022/06/02 12:00:45;;;;;;;3.13;2.40;;;17.40;99.90;;;;;;5038549;28;20060;-68
2022/06/02 12:03:42;;;;;;;2.33;2.00;;;17.50;99.90;;;;;;5063037;28;20078;-68
2022/06/02 12:06:42;;;;;;;3.75;2.20;;;17.40;99.90;;;;;;5056980;28;20056;-68
2022/06/02 12:09:32;;;;;;;3.88;2.08;;;17.40;99.90;;;;;;5008298;28;20136;-67
2022/06/02 12:12:10;;;;;;;2.78;2.40;;;17.60;99.90;;;;;;5029006;28;20045;-68
2022/06/02 12:15:04;;;;;;;4.82;2.58;;;17.70;99.90;;;;;;5040818;28;20049;-68
2022/06/02 12:17:44;;;;;;;4.65;2.70;;;17.90;99.90;;;;;;5058874;28;20056;-68
2022/06/02 12:20:25;;;;;;;4.82;2.10;;;18.20;99.90;;;;;;5042361;28;20044;-68
2022/06/02 12:23:07;;;;;;;3.17;2.15;;;18.40;99.90;;;;;;5032430;28;20136;-68
2022/06/02 12:26:04;;;;;;;4.18;2.88;;;18.40;99.90;;;;;;5043496;28;20422;-68
2022/06/02 12:28:42;;;;;;;3.03;2.30;;;18.30;99.90;;;;;;5040231;28;20048;-68
2022/06/02 12:31:30;;;;;;;5.53;2.33;;;18.30;99.90;;;;;;5042575;28;20559;-67
2022/06/02 12:34:14;;;;;;;2.38;2.10;;;18.30;99.90;;;;;;5016520;28;20053;-68
2022/06/02 12:37:18;;;;;;;2.30;2.10;;;18.20;99.90;;;;;;5022709;28;20082;-68
2022/06/02 12:39:54;;;;;;;3.92;2.08;;;18.30;99.90;;;;;;5024259;28;20578;-68
2022/06/02 12:42:47;;;;;;;4.18;2.33;;;18.50;99.90;;;;;;5057934;28;20059;-68
2022/06/02 12:45:25;;;;;;;2.95;2.33;;;18.60;99.90;;;;;;5064120;28;20049;-68
2022/06/02 12:47:53;;;;;;;2.83;1.90;;;18.70;99.90;;;;;;5032802;28;20091;-68
2022/06/02 12:50:34;;;;;;;3.42;2.17;;;18.70;99.90;;;;;;5042140;28;20041;-69
2022/06/02 12:53:30;;;;;;;4.25;2.30;;;18.90;99.90;;;;;;5046165;28;20076;-68
2022/06/02 12:56:15;;;;;;;3.92;2.47;;;19.20;99.90;;;;;;5075539;28;20064;-68
2022/06/02 12:59:14;;;;;;;2.58;2.33;;;19.20;99.90;;;;;;5038614;28;20060;-68
2022/06/02 13:01:57;;;;;;;2.90;2.33;;;19.50;99.90;;;;;;5033837;28;20079;-68
2022/06/02 13:04:57;;;;;;;2.85;2.40;;;19.70;99.90;;;;;;5054159;28;20045;-68
2022/06/02 13:07:53;;;;;;;2.83;2.30;;;19.80;99.90;;;;;;5024025;28;20056;-67
2022/06/02 13:10:52;;;;;;;3.10;2.67;;;19.90;99.90;;;;;;5036918;28;20056;-67
2022/06/02 13:13:37;;;;;;;3.63;2.60;;;20.00;99.90;;;;;;5032383;28;20533;-68
2022/06/02 13:16:30;;;;;;;2.35;1.88;;;20.00;99.90;;;;;;5041725;28;20064;-75
2022/06/02 13:19:21;;;;;;;2.63;2.15;;;20.40;99.90;;;;;;5016336;28;20064;-68
2022/06/02 13:22:05;;;;;;;2.70;1.88;;;20.70;99.90;;;;;;5034323;28;20610;-68
2022/06/02 13:24:56;;;;;;;2.78;2.15;;;21.10;99.90;;;;;;5053991;28;20067;-69
2022/06/02 13:27:57;;;;;;;2.58;2.15;;;20.90;99.90;;;;;;5032044;28;20041;-69
2022/06/02 13:30:29;;;;;;;2.50;2.13;;;21.10;99.90;;;;;;5032192;28;20065;-69
2022/06/02 13:33:27;;;;;;;3.42;2.25;;;21.50;99.90;;;;;;5063110;28;20528;-69
2022/06/02 13:36:08;;;;;;;2.83;2.00;;;21.80;99.90;;;;;;5050147;28;20053;-69
2022/06/02 13:38:55;;;;;;;2.40;2.00;;;22.40;99.90;;;;;;5031686;28;20067;-69
2022/06/02 13:41:43;;;;;;;1.92;1.80;;;23.50;99.90;;;;;;5061008;28;20094;-69
2022/06/02 13:44:37;;;;;;;4.53;2.20;;;24.00;99.90;;;;;;5015395;28;20051;-69
2022/06/02 13:47:27;;;;;;;3.15;2.00;;;24.60;99.90;;;;;;5016385;28;20053;-69
2022/06/02 13:50:31;;;;;;;2.53;1.98;;;25.30;99.90;;;;;;5041178;28;20051;-68
2022/06/02 13:53:16;;;;;;;2.08;1.90;;;24.60;99.10;;;;;;5033512;28;20056;-68
2022/06/02 13:59:11;;;;;;;2.75;2.10;;;23.50;99.90;;;;;;5033762;28;20049;-68
2022/06/02 14:02:22;;;;;;;2.42;2.22;;;22.70;99.90;;;;;;5030650;28;20045;-70
2022/06/02 14:05:05;;;;;;;2.72;2.05;;;22.50;99.90;;;;;;5050690;28;20041;-69
2022/06/02 14:07:49;;;;;;;2.40;2.13;;;22.90;99.90;;;;;;5031007;28;20112;-69
2022/06/02 14:10:29;;;;;;;2.92;2.13;;;23.20;99.90;;;;;;5032558;28;20102;-69
2022/06/02 14:13:22;;;;;;;3.85;2.53;;;23.70;99.90;;;;;;5030963;28;20049;-69
2022/06/02 14:16:10;;;;;;;2.65;1.83;;;23.90;99.90;;;;;;5040723;28;20045;-69
2022/06/02 14:18:44;;;;;;;3.65;2.20;;;24.20;99.90;;;;;;5034273;28;20579;-69
2022/06/02 14:21:39;;;;;;;3.40;2.08;;;25.10;96.70;;;;;;5040411;28;20042;-69
2022/06/02 14:24:10;;;;;;;3.13;1.70;;;25.30;94.90;;;;;;5030922;28;20056;-69
2022/06/02 14:27:06;;;;;;;2.80;2.17;;;26.30;98.70;;;;;;5044057;28;20495;-69
2022/06/02 14:29:55;;;;;;;3.63;2.22;;;26.50;96.30;;;;;;5032823;28;20057;-70